Lusaka, Zambia
Current Conditions -  °F | °C
As of 4:00 PM on Sunday 23 Nov 2014 (Local Time) from FVHA Reporting Station
Clear Clear  
Wind Chill: 30°   Ceiling: Unl
Heat Index: 30°   Visibility: 6mi
Dew Point:   Wind: 6mph
Humidity: 17%   Direction: 310°NW
Pressure: 30.12"   Gusts: NA
Location:  15.42°S, 28.29°E
Report Text: FVHA 231400Z 31005KT 280V070 CAVOK 30/02 Q1020 NOSIG RMK QFE 852.6
Loading
Personal Weather Stations






























Interactive Weather Map New forecast layout! Learn more

10-Day Weather Forecast

Advertisements
Track Severe Weather on mobile